Share

Avon, NC

7:26 AM EDT on April 24, 2014 (GMT -0400)
KNCBUXTO2 Elev 42 ft | 35.26 °N, 75.53 °W | Change Station

Current weather conditions updated 12 minutes ago

Clear
Clear
50.4 °F
Feels Like 50.4 °F
N
11.0
Wind Variable Wind from NNE
Sunrise 6:18 AM
Sunset 7:42 PM
Moon Waning Crescent

Today is forecast to be Cooler than yesterday.

Pressure 30.07 in
Visibility 10.0 miles
Clouds Clear
Dew Point 39 °F
Humidity 66%
Rainfall 0.00 in
Snow Depth Not available.
UV 0 out of 16
Pollen 9.20 out of 12
Air Quality Not available.
Flu Activity Local Activity
METAR KHSE 241051Z AUTO 02009G15KT 10SM CLR 11/02 A3007 RMK AO2 SLP182 T01060017 TSNO

More Conditions Fewer Conditions

Pressure 30.07 in
Visibility 10.0 miles
Clouds Clear
Dew Point 39 °F
Humidity 66%
Rainfall 0.00 in
Snow Depth Not available.
UV 0 out of 16
Pollen 9.20 out of 12
Air Quality Not available.
Flu Activity Local Activity
METAR KHSE 241051Z AUTO 02009G15KT 10SM CLR 11/02 A3007 RMK AO2 SLP182 T01060017 TSNO

More Conditions Fewer Conditions

10-Day Weather Forecast

Almanac

Astronomy

Apr. 24, 2014 Rise Set
Actual Time 6:18 AM EDT 7:42 PM EDT
Civil Twilight 5:51 AM EDT 8:09 PM EDT
Nautical Twilight 5:19 AM EDT 8:41 PM EDT
Astronomical Twilight 4:46 AM EDT 9:14 PM EDT
Moon 3:16 AM EDT 3:05 PM EDT
Length of Visible Light 14h 17m
Length of Day
13h 23m
Tomorrow will be 2m 0s longer.
Waning Crescent, 26% of the Moon is Illuminated
Today
Waning Crescent
Apr 29
New
May 6
First Quarter
May 14
Full
May 21
Last Quarter

Today's Extremes

State Highs State Lows

Community

  • Stacked
    Stacked
  • clouds approaching Red Sox Nation
    clouds approaching Red Sox Nation
  • Balance
    Balance
  • Nestled In
    Nestled In
  • Stunning Sunrise
    Stunning Sunrise

WunderPhotos

Upload Photos

1,704,584 photos uploaded!

WunderBlogs® & News

Nearby

Snow Depth

Station Depth Elevation
No new snow has been reported.

Coastal Water Temperatures

Place Temperature
Oregon Inlet Marina, NC 55.0 °F
Hatteras, NC 61.0 °F
Duck Pier, NC 51.1 °F
Money Point, VA 57.9 °F
Beaufort, NC 62.1 °F
Sewells Point, VA 57.0 °F
Chesapeake Bay Bridge Tunnel, VA 54.0 °F

Earthquake Activity

City Distance Mag. Time & Date
No recent earthquake activity has been reported nearby.
Minimum magnitude displayed is 2.5.

Nearby Weather Stations

Station Location Temp. Dew Point Humidity Wind Precip. Elev Updated Type
Buxton, NC 50.4 °F 39 °F 66% NNE  at  11.0 mph - / hr 42 ft 6:13 AM EST Normal

Show More Stations Show Fewer Stations

What do you think?

We're not finished. Please let us know what you like, what you don't like, and what you are still missing.